createdAt,value
2018-12-11T00:01:49.666Z,7.88
2018-12-11T00:06:59.017Z,8.04
2018-12-11T00:12:07.109Z,11.09
2018-12-11T00:17:16.282Z,7.96
2018-12-11T00:22:25.836Z,5.89
2018-12-11T00:27:35.102Z,5.60
2018-12-11T00:32:44.470Z,7.03
2018-12-11T00:37:53.721Z,7.39
2018-12-11T00:43:01.663Z,6.18
2018-12-11T00:48:11.152Z,6.15
2018-12-11T00:53:20.530Z,5.82
2018-12-11T00:58:29.702Z,6.88
2018-12-11T01:03:39.150Z,6.11
2018-12-11T01:08:50.416Z,5.17
2018-12-11T01:13:49.825Z,5.84
2018-12-11T01:18:58.970Z,6.18
2018-12-11T01:24:07.242Z,5.09
2018-12-11T01:29:16.366Z,4.68
2018-12-11T01:34:26.009Z,5.90
2018-12-11T01:39:35.281Z,5.71
2018-12-11T01:44:44.786Z,7.48
2018-12-11T01:49:54.171Z,5.70
2018-12-11T01:55:02.190Z,6.23
2018-12-11T02:00:11.388Z,4.91
2018-12-11T02:05:20.933Z,4.75
2018-12-11T02:10:30.093Z,4.08
2018-12-11T02:15:38.121Z,4.88
2018-12-11T02:20:47.377Z,5.48
2018-12-11T02:25:56.901Z,5.33
2018-12-11T02:31:06.096Z,4.89
2018-12-11T02:36:15.555Z,4.96
2018-12-11T02:41:24.822Z,4.63
2018-12-11T02:46:34.182Z,6.00
2018-12-11T02:51:43.682Z,5.18
2018-12-11T02:56:53.283Z,3.96
2018-12-11T03:02:02.430Z,4.02
2018-12-11T03:07:11.999Z,4.48
2018-12-11T03:12:21.140Z,3.97
2018-12-11T03:17:30.669Z,3.79
2018-12-11T03:22:39.983Z,4.22
2018-12-11T03:27:48.094Z,4.18
2018-12-11T03:32:57.341Z,5.28
2018-12-11T03:38:06.925Z,4.19
2018-12-11T03:43:16.181Z,3.95
2018-12-11T03:48:25.609Z,4.46
2018-12-11T03:53:35.134Z,3.12
2018-12-11T03:58:44.550Z,3.14
2018-12-11T04:03:53.694Z,3.80
2018-12-11T04:09:03.073Z,3.35
2018-12-11T04:14:12.511Z,5.40
2018-12-11T04:19:22.029Z,2.98
2018-12-11T04:24:31.161Z,3.35
2018-12-11T04:29:40.938Z,3.89
2018-12-11T04:34:50.190Z,3.01
2018-12-11T04:39:59.588Z,3.97
2018-12-11T04:45:08.814Z,4.21
2018-12-11T04:50:18.410Z,6.09
2018-12-11T04:55:32.837Z,3.96
2018-12-11T05:00:32.581Z,4.99
2018-12-11T05:05:41.727Z,4.11
2018-12-11T05:10:51.173Z,5.12
2018-12-11T05:16:00.305Z,4.05
2018-12-11T05:21:10.068Z,4.02
2018-12-11T05:26:17.721Z,3.56
2018-12-11T05:31:27.501Z,5.04
2018-12-11T05:36:36.666Z,3.69
2018-12-11T05:41:46.215Z,5.76
2018-12-11T05:46:55.361Z,6.32
2018-12-11T05:52:04.908Z,11.11
2018-12-11T05:57:14.423Z,9.30
2018-12-11T06:02:23.921Z,13.10
2018-12-11T06:07:33.222Z,9.83
2018-12-11T06:12:42.534Z,11.38
2018-12-11T06:17:51.713Z,12.92
2018-12-11T06:23:01.241Z,18.56
2018-12-11T06:28:10.437Z,16.23
2018-12-11T06:33:20.056Z,13.70
2018-12-11T06:38:29.206Z,16.66
2018-12-11T06:43:37.422Z,21.07
2018-12-11T06:48:46.593Z,12.31
2018-12-11T06:53:55.939Z,15.12
2018-12-11T06:59:05.356Z,10.85
2018-12-11T07:04:14.968Z,23.15
2018-12-11T07:09:24.084Z,15.86
2018-12-11T07:14:33.462Z,15.04
2018-12-11T07:19:42.674Z,14.19
2018-12-11T07:24:52.201Z,15.83
2018-12-11T07:30:01.365Z,13.44
2018-12-11T07:35:10.971Z,13.86
2018-12-11T07:40:20.247Z,9.92
2018-12-11T07:45:29.779Z,12.86
2018-12-11T07:50:38.961Z,9.62
2018-12-11T07:55:48.536Z,13.08
2018-12-11T08:00:57.865Z,11.10
2018-12-11T08:06:07.681Z,9.15
2018-12-11T08:11:16.872Z,10.88
2018-12-11T08:16:26.331Z,13.60
2018-12-11T08:21:35.514Z,11.42
2018-12-11T08:26:44.680Z,15.02
2018-12-11T08:31:53.886Z,10.99
2018-12-11T08:37:03.261Z,8.57
2018-12-11T08:42:12.399Z,11.61
2018-12-11T08:47:22.007Z,10.46
2018-12-11T08:52:31.222Z,11.08
2018-12-11T08:57:40.472Z,14.64
2018-12-11T09:02:49.891Z,5.99
2018-12-11T09:07:59.535Z,8.59
2018-12-11T09:13:08.766Z,7.55
2018-12-11T09:18:18.241Z,9.83
2018-12-11T09:23:27.450Z,8.55
2018-12-11T09:28:36.863Z,7.27
2018-12-11T09:33:46.182Z,7.40
2018-12-11T09:38:55.573Z,8.17
2018-12-11T09:44:04.716Z,6.73
2018-12-11T09:49:14.362Z,9.60
2018-12-11T09:54:23.814Z,7.63
2018-12-11T09:59:31.760Z,5.50
2018-12-11T10:04:40.962Z,8.31
2018-12-11T10:09:50.637Z,7.41
2018-12-11T10:14:59.793Z,7.16
2018-12-11T10:20:09.593Z,6.85
2018-12-11T10:25:18.811Z,5.90
2018-12-11T10:30:28.278Z,13.62
2018-12-11T10:35:37.435Z,9.29
2018-12-11T10:40:46.977Z,7.97
2018-12-11T10:45:56.213Z,10.70
2018-12-11T10:51:05.717Z,7.85
2018-12-11T10:56:15.193Z,8.04
2018-12-11T11:01:24.450Z,9.95
2018-12-11T11:06:32.149Z,6.52
2018-12-11T11:11:42.153Z,8.81
2018-12-11T11:16:51.216Z,8.85
2018-12-11T11:22:00.644Z,7.62
2018-12-11T11:27:09.933Z,8.13
2018-12-11T11:32:19.412Z,7.71
2018-12-11T11:37:28.597Z,8.33
2018-12-11T11:42:37.985Z,8.91
2018-12-11T11:47:47.161Z,10.27
2018-12-11T11:52:56.680Z,8.82
2018-12-11T11:58:06.076Z,9.77
2018-12-11T12:03:13.914Z,7.62
2018-12-11T12:08:23.057Z,9.66
2018-12-11T12:13:32.467Z,6.42
2018-12-11T12:18:41.649Z,8.58
2018-12-11T12:23:51.229Z,7.62
2018-12-11T12:29:00.364Z,5.75
2018-12-11T12:34:08.130Z,6.53
2018-12-11T12:39:17.258Z,7.44
2018-12-11T12:44:26.584Z,6.35
2018-12-11T12:49:35.836Z,5.62
2018-12-11T12:54:45.264Z,7.03
2018-12-11T12:59:54.641Z,5.32
2018-12-11T13:05:04.125Z,5.95
2018-12-11T13:10:13.262Z,6.16
2018-12-11T13:15:22.669Z,5.88
2018-12-11T13:20:31.976Z,5.16
2018-12-11T13:25:41.625Z,5.77
2018-12-11T13:30:50.892Z,5.11
2018-12-11T13:36:00.410Z,7.58
2018-12-11T13:41:09.725Z,4.99
2018-12-11T13:46:19.050Z,5.54
2018-12-11T13:51:28.364Z,7.43
2018-12-11T13:56:37.890Z,7.19
2018-12-11T14:01:47.334Z,7.43
2018-12-11T14:06:56.701Z,5.34
2018-12-11T14:12:05.811Z,8.42
2018-12-11T14:17:15.219Z,7.72
2018-12-11T14:22:24.342Z,4.92
2018-12-11T14:27:33.900Z,4.87
2018-12-11T14:32:43.138Z,5.60
2018-12-11T14:37:55.412Z,6.71
2018-12-11T14:42:54.542Z,6.26
2018-12-11T14:48:03.966Z,7.03
2018-12-11T14:53:13.186Z,9.89
2018-12-11T14:58:22.729Z,8.46
2018-12-11T15:03:32.165Z,4.36
2018-12-11T15:08:41.797Z,5.15
2018-12-11T15:13:50.954Z,10.86
2018-12-11T15:19:00.400Z,14.81
2018-12-11T15:24:09.508Z,13.33
2018-12-11T15:29:19.042Z,14.07
2018-12-11T15:34:28.251Z,17.74
2018-12-11T15:39:37.919Z,15.72
2018-12-11T15:44:45.591Z,22.81
2018-12-11T15:49:55.948Z,28.08
2018-12-11T15:54:55.076Z,19.14
2018-12-11T16:00:04.504Z,19.35
2018-12-11T16:05:13.953Z,20.90
2018-12-11T16:10:23.529Z,15.61
2018-12-11T16:15:32.766Z,17.99
2018-12-11T16:20:42.221Z,15.03
2018-12-11T16:25:51.369Z,26.18
2018-12-11T16:31:05.714Z,39.35
2018-12-11T16:36:04.980Z,26.99
2018-12-11T16:41:14.236Z,22.66
2018-12-11T16:46:23.411Z,18.63
2018-12-11T16:51:32.898Z,18.45
2018-12-11T16:56:42.172Z,15.63
2018-12-11T17:01:51.654Z,13.26
2018-12-11T17:07:01.059Z,14.21
2018-12-11T17:12:10.393Z,12.71
2018-12-11T17:17:18.070Z,11.74
2018-12-11T17:22:27.400Z,14.79
2018-12-11T17:27:36.675Z,19.43
2018-12-11T17:32:46.303Z,17.97
2018-12-11T17:37:53.962Z,30.62
2018-12-11T17:44:18.044Z,23.26
2018-12-11T17:49:17.127Z,16.70
2018-12-11T17:54:26.741Z,26.72
2018-12-11T17:59:41.034Z,18.51
2018-12-11T18:04:40.715Z,18.36
2018-12-11T18:09:50.024Z,17.32
2018-12-11T18:14:59.470Z,17.21
2018-12-11T18:20:08.684Z,14.62
2018-12-11T18:25:18.162Z,17.20
2018-12-11T18:30:25.933Z,13.14
2018-12-11T18:35:35.431Z,14.24
2018-12-11T18:53:08.230Z,11.54
2018-12-11T18:58:07.316Z,11.28
2018-12-11T19:03:17.066Z,9.63
2018-12-11T19:08:24.728Z,10.12
2018-12-11T19:13:39.051Z,9.34
2018-12-11T19:18:38.209Z,9.54
2018-12-11T19:23:47.714Z,10.24
2018-12-11T19:28:56.905Z,12.97
2018-12-11T19:34:06.295Z,12.10
2018-12-11T19:39:15.515Z,11.45
2018-12-11T19:44:25.963Z,11.62
2018-12-11T19:49:25.057Z,9.50
2018-12-11T19:54:34.480Z,8.09
2018-12-11T19:59:43.749Z,10.59
2018-12-11T20:04:53.348Z,8.75
2018-12-11T20:10:02.581Z,9.32
2018-12-11T20:15:12.253Z,7.56
2018-12-11T20:20:21.430Z,8.57
2018-12-11T20:25:31.180Z,11.52
2018-12-11T20:30:40.384Z,12.30
2018-12-11T20:35:50.047Z,9.78
2018-12-11T20:40:59.168Z,10.98
2018-12-11T20:46:08.588Z,10.24
2018-12-11T20:51:17.757Z,7.59
2018-12-11T20:56:27.578Z,10.85
2018-12-11T21:01:39.363Z,8.83
2018-12-11T21:06:38.987Z,6.51
2018-12-11T21:11:48.176Z,7.58
2018-12-11T21:16:57.853Z,9.22
2018-12-11T21:22:05.547Z,6.24
2018-12-11T21:27:15.192Z,8.04
2018-12-11T21:32:24.363Z,9.46
2018-12-11T21:37:34.125Z,15.03
2018-12-11T21:42:43.328Z,13.70
2018-12-11T21:47:52.678Z,10.99
2018-12-11T21:53:01.971Z,12.63
2018-12-11T21:58:11.332Z,13.54
2018-12-11T22:03:20.584Z,10.63
2018-12-11T22:08:30.273Z,12.61
2018-12-11T22:13:39.494Z,8.50
2018-12-11T22:18:49.261Z,9.67
2018-12-11T22:23:58.401Z,8.50
2018-12-11T22:29:07.986Z,10.52
2018-12-11T22:34:17.228Z,8.74
2018-12-11T22:39:26.783Z,10.21
2018-12-11T22:44:36.006Z,10.09
2018-12-11T22:49:45.720Z,8.90
2018-12-11T22:54:54.903Z,10.68
2018-12-11T23:00:04.284Z,6.64
2018-12-11T23:05:13.574Z,10.07
2018-12-11T23:10:23.033Z,7.09
2018-12-11T23:15:32.180Z,8.96
2018-12-11T23:20:41.546Z,5.92
2018-12-11T23:25:50.865Z,6.79
2018-12-11T23:31:00.317Z,6.29
2018-12-11T23:36:09.485Z,8.60
2018-12-11T23:41:19.162Z,7.99
2018-12-11T23:46:28.410Z,6.37
2018-12-11T23:51:37.993Z,9.04
2018-12-11T23:56:47.247Z,6.41
